Time;durP1;ratioP1;P1;durP2;ratioP2;P2;SDS_P1;SDS_P2;PMS_P1;PMS_P2;Temp;Humidity;BMP_temperature;BMP_pressure;BME280_temperature;BME280_humidity;BME280_pressure;Samples;Min_cycle;Max_cycle;Signal;HPM_P1;HPM_P2
2023/04/08 00:01:33;;;;;;;3.22;2.42;;;;;;;;;;10470217;28;20222;-75
2023/04/08 00:06:35;;;;;;;6.28;2.90;;;;;;;;;;10466406;28;20217;-74
2023/04/08 00:11:36;;;;;;;3.15;2.88;;;;;;;;;;10456375;28;20218;-76
2023/04/08 00:16:37;;;;;;;7.38;3.10;;;;;;;;;;10465372;28;20715;-76
2023/04/08 00:21:39;;;;;;;4.25;3.55;;;;;;;;;;10473257;28;20225;-77
2023/04/08 00:26:40;;;;;;;5.40;3.95;;;;;;;;;;10476127;28;20217;-74
2023/04/08 00:31:41;;;;;;;3.17;2.88;;;;;;;;;;10482239;28;20223;-75
2023/04/08 00:36:42;;;;;;;4.70;3.47;;;;;;;;;;10443479;28;22136;-77
2023/04/08 00:41:43;;;;;;;3.10;2.65;;;;;;;;;;10426236;28;20249;-77
2023/04/08 00:46:44;;;;;;;3.13;2.53;;;;;;;;;;10436698;28;20632;-77
2023/04/08 00:51:45;;;;;;;4.10;2.95;;;;;;;;;;10467710;28;20585;-76
2023/04/08 00:56:46;;;;;;;5.82;4.00;;;;;;;;;;10463645;28;20215;-76
2023/04/08 01:01:55;;;;;;;3.38;3.08;;;;;;;;;;10473509;28;20703;-77
2023/04/08 01:06:58;;;;;;;3.30;3.10;;;;;;;;;;10493363;28;20218;-77
2023/04/08 01:12:01;;;;;;;3.10;2.90;;;;;;;;;;10477712;28;20224;-76
2023/04/08 01:17:02;;;;;;;3.60;3.10;;;;;;;;;;10498162;28;20225;-76
2023/04/08 01:22:15;;;;;;;5.30;3.42;;;;;;;;;;10454237;28;20213;-75
2023/04/08 01:27:16;;;;;;;3.65;3.35;;;;;;;;;;10428801;28;20219;-77
2023/04/08 01:32:17;;;;;;;6.43;4.10;;;;;;;;;;10448226;28;20221;-76
2023/04/08 01:37:19;;;;;;;7.80;4.40;;;;;;;;;;10441556;28;20221;-75
2023/04/08 01:42:21;;;;;;;7.25;4.07;;;;;;;;;;10472595;28;20301;-76
2023/04/08 01:47:25;;;;;;;8.10;4.20;;;;;;;;;;10488998;28;20305;-78
2023/04/08 01:52:26;;;;;;;5.85;3.90;;;;;;;;;;10482471;28;20366;-75
2023/04/08 01:57:28;;;;;;;4.38;3.97;;;;;;;;;;10467455;28;20206;-76
2023/04/08 02:02:31;;;;;;;9.38;5.20;;;;;;;;;;10463013;28;20310;-76
2023/04/08 02:07:32;;;;;;;9.45;4.47;;;;;;;;;;10442382;28;20238;-77
2023/04/08 02:12:33;;;;;;;5.63;4.47;;;;;;;;;;10443165;28;20248;-76
2023/04/08 02:17:52;;;;;;;10.48;4.90;;;;;;;;;;10446889;28;20305;-76
2023/04/08 02:23:05;;;;;;;7.60;4.70;;;;;;;;;;10455928;28;20232;-78
2023/04/08 02:28:06;;;;;;;11.27;4.88;;;;;;;;;;10438131;28;20244;-74
2023/04/08 02:33:08;;;;;;;8.85;5.15;;;;;;;;;;10462441;28;20226;-76
2023/04/08 02:38:09;;;;;;;9.32;5.07;;;;;;;;;;10432948;28;20740;-75
2023/04/08 02:43:11;;;;;;;5.22;4.07;;;;;;;;;;10474175;28;20266;-75
2023/04/08 02:48:12;;;;;;;6.97;4.78;;;;;;;;;;10447602;28;20263;-77
2023/04/08 02:53:13;;;;;;;14.73;4.45;;;;;;;;;;10440051;28;20229;-74
2023/04/08 02:58:14;;;;;;;10.82;5.03;;;;;;;;;;10450126;28;20729;-77
2023/04/08 03:03:15;;;;;;;8.40;5.18;;;;;;;;;;10446627;28;20259;-77
2023/04/08 03:08:16;;;;;;;4.97;3.95;;;;;;;;;;10444731;28;20210;-73
2023/04/08 03:13:17;;;;;;;8.98;4.10;;;;;;;;;;10457785;28;20324;-75
2023/04/08 03:18:18;;;;;;;6.22;4.78;;;;;;;;;;10469859;28;20214;-75
2023/04/08 03:23:19;;;;;;;7.85;4.13;;;;;;;;;;10472997;28;20721;-76
2023/04/08 03:28:20;;;;;;;5.50;4.05;;;;;;;;;;10449100;28;20303;-76
2023/04/08 03:33:21;;;;;;;9.88;4.43;;;;;;;;;;10472773;28;20261;-76
2023/04/08 03:38:23;;;;;;;7.32;4.32;;;;;;;;;;10456737;28;20216;-72
2023/04/08 03:43:24;;;;;;;7.82;4.10;;;;;;;;;;10447966;28;20742;-74
2023/04/08 03:48:25;;;;;;;8.77;4.63;;;;;;;;;;10454963;28;20210;-75
2023/04/08 03:53:28;;;;;;;7.55;4.80;;;;;;;;;;10440630;28;20221;-77
2023/04/08 03:58:29;;;;;;;6.43;4.55;;;;;;;;;;10450576;28;20332;-76
2023/04/08 04:03:30;;;;;;;7.93;5.20;;;;;;;;;;10466857;28;20214;-76
2023/04/08 04:08:31;;;;;;;8.07;4.93;;;;;;;;;;10435659;28;20340;-78
2023/04/08 04:13:32;;;;;;;11.02;5.50;;;;;;;;;;10421864;28;20297;-75
2023/04/08 04:18:33;;;;;;;10.15;5.15;;;;;;;;;;10422585;28;20252;-77
2023/04/08 04:23:34;;;;;;;8.93;5.78;;;;;;;;;;10445176;28;20244;-77
2023/04/08 04:28:35;;;;;;;7.00;5.03;;;;;;;;;;10415047;28;21185;-76
2023/04/08 04:33:36;;;;;;;6.57;5.22;;;;;;;;;;10447492;28;20234;-76
2023/04/08 04:38:37;;;;;;;9.38;5.40;;;;;;;;;;10428388;28;20249;-76
2023/04/08 04:43:38;;;;;;;10.73;5.70;;;;;;;;;;10435925;28;20218;-75
2023/04/08 04:48:39;;;;;;;12.90;6.20;;;;;;;;;;10429580;28;22441;-76
2023/04/08 04:53:40;;;;;;;15.05;6.93;;;;;;;;;;10448070;28;20867;-75
2023/04/08 04:58:41;;;;;;;12.93;7.13;;;;;;;;;;10478270;28;20226;-78
2023/04/08 05:03:42;;;;;;;15.55;7.07;;;;;;;;;;10465555;28;20226;-75
2023/04/08 05:08:43;;;;;;;16.55;6.78;;;;;;;;;;10437955;28;20798;-78
2023/04/08 05:13:45;;;;;;;15.80;7.88;;;;;;;;;;10464512;28;20218;-75
2023/04/08 05:18:46;;;;;;;13.02;6.78;;;;;;;;;;10458072;28;20229;-77
2023/04/08 05:23:47;;;;;;;16.92;7.28;;;;;;;;;;10471427;28;20272;-75
2023/04/08 05:28:48;;;;;;;18.58;7.82;;;;;;;;;;10443352;28;20635;-75
2023/04/08 05:33:49;;;;;;;25.10;8.25;;;;;;;;;;10412886;28;20237;-77
2023/04/08 05:38:50;;;;;;;18.52;7.50;;;;;;;;;;10428276;28;22196;-77
2023/04/08 05:43:51;;;;;;;14.10;8.13;;;;;;;;;;10425670;28;20236;-77
2023/04/08 05:48:52;;;;;;;17.98;8.07;;;;;;;;;;10439143;28;20789;-77
2023/04/08 05:53:53;;;;;;;19.23;7.88;;;;;;;;;;10455914;28;20964;-75
2023/04/08 05:58:54;;;;;;;18.42;8.05;;;;;;;;;;10448491;28;20218;-77
2023/04/08 06:03:55;;;;;;;18.00;7.90;;;;;;;;;;10452968;28;20222;-76
2023/04/08 06:08:56;;;;;;;17.45;8.57;;;;;;;;;;10456526;28;20363;-76
2023/04/08 06:13:58;;;;;;;18.30;7.82;;;;;;;;;;10434330;28;20225;-79
2023/04/08 06:18:59;;;;;;;19.10;8.73;;;;;;;;;;10414190;28;20279;-77
2023/04/08 06:24:00;;;;;;;18.90;7.95;;;;;;;;;;10428380;28;20218;-80
2023/04/08 06:29:02;;;;;;;19.60;8.82;;;;;;;;;;10409382;28;20220;-78
2023/04/08 06:34:03;;;;;;;15.38;8.23;;;;;;;;;;10423866;28;20218;-76
2023/04/08 06:39:04;;;;;;;16.00;7.47;;;;;;;;;;10413883;28;21004;-76
2023/04/08 06:44:05;;;;;;;22.48;8.48;;;;;;;;;;10412788;28;20305;-77
2023/04/08 06:49:06;;;;;;;13.68;8.38;;;;;;;;;;10418039;28;20610;-73
2023/04/08 06:54:11;;;;;;;14.77;7.45;;;;;;;;;;10466067;28;20306;-78
2023/04/08 06:59:12;;;;;;;22.83;8.45;;;;;;;;;;10423158;28;20266;-75
2023/04/08 07:04:13;;;;;;;15.25;7.55;;;;;;;;;;10439665;28;21179;-75
2023/04/08 07:09:14;;;;;;;12.18;6.22;;;;;;;;;;10432708;28;20305;-76
2023/04/08 07:14:15;;;;;;;9.40;6.00;;;;;;;;;;10430692;28;20752;-79
2023/04/08 07:19:16;;;;;;;9.48;6.05;;;;;;;;;;10419868;28;20276;-75
2023/04/08 07:24:17;;;;;;;13.20;7.00;;;;;;;;;;10435313;28;20309;-76
2023/04/08 07:29:18;;;;;;;18.08;10.35;;;;;;;;;;10460344;28;20264;-74
2023/04/08 07:34:19;;;;;;;20.95;8.55;;;;;;;;;;10405807;28;20214;-74
2023/04/08 07:39:20;;;;;;;11.98;6.47;;;;;;;;;;10387332;28;20218;-72
2023/04/08 07:44:21;;;;;;;14.32;6.35;;;;;;;;;;10458911;28;20226;-75
2023/04/08 07:49:22;;;;;;;9.40;6.10;;;;;;;;;;10473578;28;20300;-75
2023/04/08 07:54:23;;;;;;;6.45;5.25;;;;;;;;;;10456935;28;20612;-76
2023/04/08 07:59:24;;;;;;;7.88;5.18;;;;;;;;;;10436650;28;20655;-76
2023/04/08 08:04:25;;;;;;;9.68;5.22;;;;;;;;;;10444810;28;20309;-77
2023/04/08 08:09:26;;;;;;;9.18;5.10;;;;;;;;;;10411140;28;20337;-78
2023/04/08 08:14:27;;;;;;;14.70;6.53;;;;;;;;;;10410792;28;20782;-78
2023/04/08 08:19:28;;;;;;;10.40;5.95;;;;;;;;;;10441031;28;20214;-78
2023/04/08 08:24:29;;;;;;;8.98;5.43;;;;;;;;;;10435102;28;20324;-77
2023/04/08 08:29:30;;;;;;;12.27;6.07;;;;;;;;;;10415264;28;20233;-79
2023/04/08 08:34:32;;;;;;;15.15;6.25;;;;;;;;;;10435982;28;20214;-78
2023/04/08 08:39:33;;;;;;;12.55;5.05;;;;;;;;;;10417143;28;20245;-77
2023/04/08 08:44:34;;;;;;;10.48;5.32;;;;;;;;;;10419085;28;20244;-78
2023/04/08 08:49:35;;;;;;;10.68;6.18;;;;;;;;;;10415656;28;20657;-80
2023/04/08 08:54:37;;;;;;;13.00;6.85;;;;;;;;;;10419165;28;20765;-75
2023/04/08 08:59:38;;;;;;;12.15;6.05;;;;;;;;;;10425066;28;20270;-77
2023/04/08 09:04:40;;;;;;;16.58;6.90;;;;;;;;;;10440592;28;20603;-76
2023/04/08 09:09:48;;;;;;;13.27;6.82;;;;;;;;;;10437691;28;20305;-76
2023/04/08 09:14:50;;;;;;;16.50;6.80;;;;;;;;;;10464593;28;20226;-77
2023/04/08 09:20:08;;;;;;;12.00;6.25;;;;;;;;;;10447135;28;20675;-78
2023/04/08 09:25:22;;;;;;;12.85;6.75;;;;;;;;;;10452446;28;20210;-78
2023/04/08 09:30:26;;;;;;;11.85;6.35;;;;;;;;;;10460787;28;20230;-81
2023/04/08 09:35:27;;;;;;;12.68;6.50;;;;;;;;;;10474232;28;20229;-78
2023/04/08 09:40:28;;;;;;;15.98;7.50;;;;;;;;;;10427959;28;20561;-79
2023/04/08 09:45:30;;;;;;;15.05;7.25;;;;;;;;;;10450594;28;20230;-81
2023/04/08 09:50:32;;;;;;;18.80;7.65;;;;;;;;;;10479963;28;20275;-82
2023/04/08 09:55:34;;;;;;;16.35;8.27;;;;;;;;;;10478448;28;20218;-78
2023/04/08 10:00:38;;;;;;;17.88;8.05;;;;;;;;;;10455668;28;20241;-79
2023/04/08 10:05:41;;;;;;;13.75;8.13;;;;;;;;;;10448178;28;20230;-78
2023/04/08 10:10:42;;;;;;;13.75;8.23;;;;;;;;;;10462142;28;20292;-78
2023/04/08 10:15:46;;;;;;;15.85;8.10;;;;;;;;;;10458071;28;20226;-82
2023/04/08 10:20:48;;;;;;;13.60;6.93;;;;;;;;;;10477603;28;20670;-82
2023/04/08 10:25:49;;;;;;;20.17;7.97;;;;;;;;;;10441847;28;20210;-81
2023/04/08 10:30:50;;;;;;;12.77;7.65;;;;;;;;;;10449368;28;20245;-81
2023/04/08 10:35:58;;;;;;;14.13;7.53;;;;;;;;;;10449801;28;20217;-80
2023/04/08 10:40:59;;;;;;;14.32;8.20;;;;;;;;;;10455562;28;20308;-79
2023/04/08 10:46:00;;;;;;;14.07;7.43;;;;;;;;;;10442129;28;20276;-79
2023/04/08 10:51:02;;;;;;;13.75;7.75;;;;;;;;;;10470745;28;20288;-79
2023/04/08 10:56:04;;;;;;;16.38;8.80;;;;;;;;;;10479759;28;20213;-82
2023/04/08 11:01:06;;;;;;;14.68;7.75;;;;;;;;;;10476703;28;20217;-80
2023/04/08 11:06:07;;;;;;;12.95;8.52;;;;;;;;;;10481717;28;20213;-81
2023/04/08 11:11:09;;;;;;;14.88;7.47;;;;;;;;;;10462520;28;20719;-80
2023/04/08 11:16:10;;;;;;;14.75;7.80;;;;;;;;;;10456060;28;20210;-80
2023/04/08 11:21:11;;;;;;;17.90;7.72;;;;;;;;;;10466309;28;20218;-79
2023/04/08 11:26:13;;;;;;;13.25;7.57;;;;;;;;;;10454605;28;20221;-79
2023/04/08 11:31:14;;;;;;;15.57;8.38;;;;;;;;;;10459625;28;20913;-81
2023/04/08 11:36:17;;;;;;;15.43;7.97;;;;;;;;;;10482699;28;20213;-81
2023/04/08 11:41:21;;;;;;;15.45;7.45;;;;;;;;;;10442261;28;20252;-78
2023/04/08 11:46:23;;;;;;;16.25;8.77;;;;;;;;;;10484929;28;20308;-79
2023/04/08 11:51:26;;;;;;;18.08;9.35;;;;;;;;;;10470682;28;20217;-80
2023/04/08 11:56:29;;;;;;;13.48;8.30;;;;;;;;;;10474242;28;20221;-80
2023/04/08 12:01:31;;;;;;;13.05;8.70;;;;;;;;;;10455532;28;20213;-78
2023/04/08 12:06:32;;;;;;;16.65;8.45;;;;;;;;;;10470549;28;20210;-78
2023/04/08 12:11:33;;;;;;;21.38;8.52;;;;;;;;;;10454172;28;20677;-79
2023/04/08 12:16:35;;;;;;;12.13;8.57;;;;;;;;;;10479661;28;20222;-79
2023/04/08 12:21:37;;;;;;;15.95;8.98;;;;;;;;;;10461710;28;20287;-80
2023/04/08 12:26:38;;;;;;;14.88;8.55;;;;;;;;;;10464504;28;20330;-79
2023/04/08 12:31:39;;;;;;;13.10;8.10;;;;;;;;;;10479693;28;20234;-81
2023/04/08 12:36:40;;;;;;;55.88;23.80;;;;;;;;;;10447793;28;20276;-79
2023/04/08 12:41:41;;;;;;;37.38;17.77;;;;;;;;;;10433094;28;21367;-82
2023/04/08 12:46:43;;;;;;;15.75;8.50;;;;;;;;;;10445088;28;20225;-78
2023/04/08 12:51:44;;;;;;;16.27;8.32;;;;;;;;;;10446942;28;20226;-80
2023/04/08 12:56:45;;;;;;;14.45;8.23;;;;;;;;;;10470707;28;20237;-79
2023/04/08 13:01:46;;;;;;;13.95;8.00;;;;;;;;;;10444470;28;20271;-77
2023/04/08 13:06:47;;;;;;;12.38;7.75;;;;;;;;;;10466739;28;20213;-78
2023/04/08 13:11:48;;;;;;;14.82;8.95;;;;;;;;;;10444230;28;20225;-78
2023/04/08 13:16:49;;;;;;;12.60;8.57;;;;;;;;;;10451817;28;20247;-79
2023/04/08 13:21:50;;;;;;;12.88;8.07;;;;;;;;;;10454054;28;20218;-79
2023/04/08 13:26:51;;;;;;;13.68;8.00;;;;;;;;;;10443006;28;20221;-76
2023/04/08 13:31:52;;;;;;;13.23;7.75;;;;;;;;;;10452784;28;20221;-78
2023/04/08 13:36:53;;;;;;;12.98;7.90;;;;;;;;;;10426289;28;20220;-79
2023/04/08 13:41:55;;;;;;;13.63;7.88;;;;;;;;;;10451191;28;20768;-79
2023/04/08 13:46:56;;;;;;;13.15;7.93;;;;;;;;;;10449289;28;20302;-78
2023/04/08 13:51:57;;;;;;;12.73;8.65;;;;;;;;;;10471746;28;20316;-78
2023/04/08 13:56:58;;;;;;;12.85;8.15;;;;;;;;;;10439750;28;20222;-80
2023/04/08 14:01:59;;;;;;;11.77;7.70;;;;;;;;;;10465684;28;20221;-79
2023/04/08 14:07:00;;;;;;;11.52;7.25;;;;;;;;;;10454446;28;20217;-79
2023/04/08 14:12:01;;;;;;;12.38;8.23;;;;;;;;;;10463721;28;20744;-79
2023/04/08 14:17:03;;;;;;;11.75;7.78;;;;;;;;;;10459979;28;20220;-78
2023/04/08 14:22:04;;;;;;;15.13;8.23;;;;;;;;;;10447825;28;20214;-79
2023/04/08 14:27:05;;;;;;;11.00;7.18;;;;;;;;;;10454532;28;20210;-79
2023/04/08 14:32:06;;;;;;;10.63;6.80;;;;;;;;;;10444532;28;20228;-80
2023/04/08 14:37:07;;;;;;;15.50;7.60;;;;;;;;;;10428004;28;20217;-79
2023/04/08 14:42:08;;;;;;;15.98;8.20;;;;;;;;;;10449814;28;20328;-80
2023/04/08 14:47:11;;;;;;;15.30;9.73;;;;;;;;;;10434178;28;20946;-79
2023/04/08 14:52:12;;;;;;;11.20;7.68;;;;;;;;;;10446863;28;20222;-78
2023/04/08 14:57:13;;;;;;;11.55;7.75;;;;;;;;;;10447902;28;20874;-79
2023/04/08 15:02:14;;;;;;;9.57;7.50;;;;;;;;;;10454482;28;20213;-78
2023/04/08 15:07:15;;;;;;;19.20;7.53;;;;;;;;;;10452682;28;20222;-78
2023/04/08 15:12:16;;;;;;;10.82;7.07;;;;;;;;;;10434675;28;20222;-78
2023/04/08 15:17:17;;;;;;;14.95;7.85;;;;;;;;;;10460046;28;20263;-78
2023/04/08 15:22:18;;;;;;;12.98;8.07;;;;;;;;;;10433515;28;20344;-77
2023/04/08 15:27:19;;;;;;;13.07;8.48;;;;;;;;;;10446491;28;20657;-78
2023/04/08 15:32:20;;;;;;;13.80;8.00;;;;;;;;;;10430165;28;20228;-78
2023/04/08 15:37:21;;;;;;;11.23;7.25;;;;;;;;;;10409152;28;20214;-79
2023/04/08 15:42:22;;;;;;;13.07;7.72;;;;;;;;;;10453141;28;20715;-79
2023/04/08 15:47:23;;;;;;;11.88;7.18;;;;;;;;;;10464733;28;20233;-79
2023/04/08 15:52:24;;;;;;;11.98;7.50;;;;;;;;;;10462592;28;21526;-77
2023/04/08 15:57:27;;;;;;;9.38;7.40;;;;;;;;;;10453467;28;20315;-80
2023/04/08 16:02:28;;;;;;;7.88;6.53;;;;;;;;;;10452458;28;20367;-78
2023/04/08 16:07:29;;;;;;;10.90;7.40;;;;;;;;;;10463903;28;20222;-78
2023/04/08 16:12:31;;;;;;;11.48;6.68;;;;;;;;;;10439876;28;21194;-79
2023/04/08 16:17:33;;;;;;;8.27;6.57;;;;;;;;;;10441866;28;20212;-79
2023/04/08 16:22:35;;;;;;;9.85;7.00;;;;;;;;;;10439954;28;20398;-80
2023/04/08 16:27:37;;;;;;;9.40;7.82;;;;;;;;;;10453991;28;20213;-80
2023/04/08 16:32:39;;;;;;;9.40;6.78;;;;;;;;;;10473454;28;20244;-78
2023/04/08 16:37:40;;;;;;;8.20;6.13;;;;;;;;;;10476653;28;20306;-79
2023/04/08 16:42:41;;;;;;;9.30;6.25;;;;;;;;;;10476772;28;20264;-79
2023/04/08 16:47:43;;;;;;;9.38;7.03;;;;;;;;;;10476824;28;20219;-79
2023/04/08 16:52:48;;;;;;;10.20;6.95;;;;;;;;;;10458745;28;20891;-78
2023/04/08 16:57:49;;;;;;;9.98;7.20;;;;;;;;;;10469110;28;20226;-79
2023/04/08 17:02:51;;;;;;;8.07;6.35;;;;;;;;;;10462155;28;20217;-79
2023/04/08 17:07:52;;;;;;;11.27;6.78;;;;;;;;;;10476412;28;20218;-79
2023/04/08 17:12:53;;;;;;;11.20;7.03;;;;;;;;;;10462281;28;20586;-79
2023/04/08 17:17:54;;;;;;;10.00;6.05;;;;;;;;;;10446857;28;20299;-78
2023/04/08 17:22:55;;;;;;;9.75;6.72;;;;;;;;;;10448146;28;20324;-78
2023/04/08 17:27:57;;;;;;;10.15;6.78;;;;;;;;;;10484655;28;20244;-78
2023/04/08 17:32:57;;;;;;;10.45;6.93;;;;;;;;;;10464224;28;20217;-78
2023/04/08 17:37:58;;;;;;;11.70;8.25;;;;;;;;;;10480351;28;20576;-81
2023/04/08 17:43:00;;;;;;;15.32;7.55;;;;;;;;;;10483133;28;20226;-79
2023/04/08 17:48:03;;;;;;;11.32;6.90;;;;;;;;;;10463819;28;20709;-79
2023/04/08 17:53:04;;;;;;;14.30;7.18;;;;;;;;;;10463278;28;20209;-77
2023/04/08 17:58:06;;;;;;;12.30;7.35;;;;;;;;;;10473836;28;21076;-78
2023/04/08 18:03:07;;;;;;;9.82;7.10;;;;;;;;;;10462910;28;20226;-77
2023/04/08 18:08:08;;;;;;;12.80;7.20;;;;;;;;;;10462121;28;20229;-78
2023/04/08 18:13:09;;;;;;;11.35;7.43;;;;;;;;;;10464902;28;20215;-77
2023/04/08 18:18:10;;;;;;;13.07;7.75;;;;;;;;;;10460937;28;20213;-78
2023/04/08 18:23:11;;;;;;;16.02;9.52;;;;;;;;;;10458439;28;20225;-78
2023/04/08 18:28:12;;;;;;;13.55;7.60;;;;;;;;;;10465614;28;20844;-78
2023/04/08 18:33:13;;;;;;;14.52;8.82;;;;;;;;;;10475409;28;20308;-78
2023/04/08 18:38:15;;;;;;;14.98;9.10;;;;;;;;;;10462691;28;20252;-77
2023/04/08 18:43:15;;;;;;;13.40;9.02;;;;;;;;;;10470881;28;20222;-79
2023/04/08 18:48:16;;;;;;;19.70;11.00;;;;;;;;;;10437178;28;20849;-78
2023/04/08 18:53:17;;;;;;;20.65;10.95;;;;;;;;;;10459571;28;20893;-78
2023/04/08 18:58:18;;;;;;;18.20;10.70;;;;;;;;;;10466679;28;20225;-79
2023/04/08 19:03:19;;;;;;;34.22;14.30;;;;;;;;;;10465301;28;20325;-79
2023/04/08 19:08:20;;;;;;;23.73;13.18;;;;;;;;;;10465653;28;20328;-78
2023/04/08 19:13:22;;;;;;;22.70;13.60;;;;;;;;;;10456717;28;20214;-78
2023/04/08 19:18:23;;;;;;;21.52;12.68;;;;;;;;;;10463247;28;20224;-78
2023/04/08 19:23:24;;;;;;;22.83;11.82;;;;;;;;;;10450831;28;20313;-77
2023/04/08 19:28:25;;;;;;;19.50;11.98;;;;;;;;;;10448336;28;20210;-78
2023/04/08 19:33:27;;;;;;;30.95;17.85;;;;;;;;;;10466594;28;20220;-78
2023/04/08 19:38:28;;;;;;;28.85;15.23;;;;;;;;;;10483143;28;20224;-77
2023/04/08 19:43:29;;;;;;;22.35;12.88;;;;;;;;;;10445463;28;20218;-77
2023/04/08 19:48:31;;;;;;;18.80;10.77;;;;;;;;;;10485420;28;20283;-77
2023/04/08 19:53:33;;;;;;;19.77;11.48;;;;;;;;;;10456401;28;20210;-78
2023/04/08 19:58:34;;;;;;;24.98;12.40;;;;;;;;;;10470422;28;20587;-79
2023/04/08 20:03:35;;;;;;;23.80;12.88;;;;;;;;;;10467556;28;20229;-80
2023/04/08 20:08:36;;;;;;;26.95;12.43;;;;;;;;;;10464376;28;20214;-78
2023/04/08 20:13:38;;;;;;;24.02;11.43;;;;;;;;;;10493191;28;20653;-78
2023/04/08 20:18:39;;;;;;;23.85;12.38;;;;;;;;;;10482548;28;20218;-79
2023/04/08 20:23:43;;;;;;;16.45;10.80;;;;;;;;;;10458838;28;20222;-78
2023/04/08 20:28:44;;;;;;;18.63;10.80;;;;;;;;;;10461806;28;20230;-77
2023/04/08 20:33:45;;;;;;;24.05;13.40;;;;;;;;;;10458750;28;20214;-79
2023/04/08 20:38:46;;;;;;;30.23;15.63;;;;;;;;;;10473367;28;20295;-78
2023/04/08 20:43:50;;;;;;;21.83;10.70;;;;;;;;;;10477328;28;20340;-80
2023/04/08 20:48:51;;;;;;;21.70;12.65;;;;;;;;;;10455406;28;21469;-77
2023/04/08 20:53:52;;;;;;;20.83;11.65;;;;;;;;;;10472076;28;20699;-79
2023/04/08 20:58:53;;;;;;;21.35;11.20;;;;;;;;;;10487061;28;20275;-78
2023/04/08 21:03:54;;;;;;;26.38;13.60;;;;;;;;;;10450686;28;20726;-79
2023/04/08 21:08:55;;;;;;;21.88;13.40;;;;;;;;;;10463308;28;20621;-79
2023/04/08 21:13:56;;;;;;;26.95;12.95;;;;;;;;;;10464785;28;20218;-79
2023/04/08 21:19:00;;;;;;;26.15;11.75;;;;;;;;;;10450866;28;20788;-78
2023/04/08 21:24:02;;;;;;;24.20;12.48;;;;;;;;;;10459736;28;20275;-78
2023/04/08 21:29:03;;;;;;;18.40;10.85;;;;;;;;;;10468471;28;20221;-78
2023/04/08 21:34:04;;;;;;;22.35;11.32;;;;;;;;;;10444339;28;20259;-80
2023/04/08 21:39:05;;;;;;;23.70;11.20;;;;;;;;;;10444306;28;20313;-78
2023/04/08 21:44:07;;;;;;;23.23;10.18;;;;;;;;;;10486536;28;20222;-79
2023/04/08 21:49:10;;;;;;;18.70;10.25;;;;;;;;;;10461633;28;20226;-77
2023/04/08 21:54:11;;;;;;;26.92;11.68;;;;;;;;;;10457133;28;20214;-78
2023/04/08 21:59:12;;;;;;;25.70;11.63;;;;;;;;;;10476122;28;20214;-78
2023/04/08 22:04:13;;;;;;;27.05;12.40;;;;;;;;;;10476463;28;20704;-78
2023/04/08 22:09:18;;;;;;;24.20;13.45;;;;;;;;;;10469019;28;20218;-75
2023/04/08 22:14:19;;;;;;;29.95;12.43;;;;;;;;;;10463121;28;20586;-79
2023/04/08 22:19:20;;;;;;;22.92;12.18;;;;;;;;;;10463523;28;20225;-79
2023/04/08 22:24:21;;;;;;;25.70;12.48;;;;;;;;;;10467346;28;20213;-78
2023/04/08 22:29:22;;;;;;;26.42;12.93;;;;;;;;;;10466270;28;20214;-79
2023/04/08 22:34:23;;;;;;;28.23;12.60;;;;;;;;;;10468482;28;20232;-77
2023/04/08 22:39:25;;;;;;;24.35;12.10;;;;;;;;;;10476626;28;20217;-80
2023/04/08 22:44:26;;;;;;;36.65;14.88;;;;;;;;;;10483677;28;20218;-79
2023/04/08 22:49:27;;;;;;;26.58;13.02;;;;;;;;;;10482263;28;20623;-78
2023/04/08 22:54:28;;;;;;;24.13;13.00;;;;;;;;;;10495296;28;20210;-79
2023/04/08 22:59:29;;;;;;;22.10;12.20;;;;;;;;;;10459941;28;20221;-77
2023/04/08 23:04:30;;;;;;;30.65;13.30;;;;;;;;;;10464394;28;20209;-79
2023/04/08 23:09:32;;;;;;;26.52;12.68;;;;;;;;;;10490477;28;20214;-76
2023/04/08 23:14:33;;;;;;;27.00;12.25;;;;;;;;;;10471034;28;20209;-77
2023/04/08 23:19:34;;;;;;;27.50;12.85;;;;;;;;;;10455009;28;20706;-75
2023/04/08 23:24:35;;;;;;;28.20;10.63;;;;;;;;;;10473615;28;20218;-78
2023/04/08 23:29:36;;;;;;;21.58;11.02;;;;;;;;;;10468178;28;20660;-77
2023/04/08 23:34:37;;;;;;;24.67;10.75;;;;;;;;;;10471539;28;20213;-75
2023/04/08 23:39:38;;;;;;;23.70;11.23;;;;;;;;;;10447646;28;20210;-78
2023/04/08 23:44:39;;;;;;;26.13;11.60;;;;;;;;;;10489612;28;20343;-78
2023/04/08 23:49:40;;;;;;;21.40;10.43;;;;;;;;;;10458083;28;20288;-78
2023/04/08 23:54:41;;;;;;;29.80;10.50;;;;;;;;;;10491103;28;20630;-79
2023/04/08 23:59:42;;;;;;;28.10;10.43;;;;;;;;;;10496002;28;20217;-78
